Time;durP1;ratioP1;P1;durP2;ratioP2;P2;SDS_P1;SDS_P2;PMS_P1;PMS_P2;Temp;Humidity;BMP_temperature;BMP_pressure;BME280_temperature;BME280_humidity;BME280_pressure;Samples;Min_cycle;Max_cycle;Signal;HPM_P1;HPM_P2
2022/10/29 00:00:41;;;;;;;38.17;13.55;;;;;;;;;;1675161;85;21071;-84
2022/10/29 00:03:08;;;;;;;28.17;12.35;;;;;;;;;;1675252;84;21586;-84
2022/10/29 00:05:34;;;;;;;32.23;13.00;;;;;;;;;;1675534;84;21063;-84
2022/10/29 00:07:59;;;;;;;26.80;11.73;;;;;;;;;;1675394;85;21058;-82
2022/10/29 00:10:26;;;;;;;26.68;12.65;;;;;;;;;;1675043;85;20983;-84
2022/10/29 00:12:52;;;;;;;35.80;13.90;;;;;;;;;;1675594;85;21039;-83
2022/10/29 00:15:17;;;;;;;27.45;13.13;;;;;;;;;;1675284;85;20896;-84
2022/10/29 00:17:43;;;;;;;34.43;13.88;;;;;;;;;;1675151;85;20920;-84
2022/10/29 00:20:09;;;;;;;33.10;13.40;;;;;;;;;;1675456;85;21770;-83
2022/10/29 00:22:38;;;;;;;34.98;14.05;;;;;;;;;;1679340;83;21125;-85
2022/10/29 00:25:04;;;;;;;35.23;15.40;;;;;;;;;;1679730;85;21082;-84
2022/10/29 00:27:29;;;;;;;32.85;14.87;;;;;;;;;;1679990;85;21138;-84
2022/10/29 00:29:55;;;;;;;40.40;15.88;;;;;;;;;;1679914;85;20939;-84
2022/10/29 00:32:21;;;;;;;34.98;15.35;;;;;;;;;;1680027;85;21153;-84
2022/10/29 00:34:47;;;;;;;35.30;15.75;;;;;;;;;;1680098;85;21637;-84
2022/10/29 00:37:12;;;;;;;33.85;13.93;;;;;;;;;;1680076;85;20990;-84
2022/10/29 00:39:38;;;;;;;37.17;14.73;;;;;;;;;;1688643;82;20944;-84
2022/10/29 00:42:04;;;;;;;35.73;15.13;;;;;;;;;;1735264;82;20908;-84
2022/10/29 00:44:37;;;;;;;36.75;14.93;;;;;;;;;;1735110;82;21585;-83
2022/10/29 00:47:25;;;;;;;34.03;14.87;;;;;;;;;;1734782;82;21594;-83
2022/10/29 00:50:00;;;;;;;33.30;14.85;;;;;;;;;;1735255;82;21004;-83
2022/10/29 00:52:29;;;;;;;34.03;13.98;;;;;;;;;;1688163;83;21019;-83
2022/10/29 00:54:55;;;;;;;37.48;14.95;;;;;;;;;;1685840;85;21065;-85
2022/10/29 00:57:25;;;;;;;32.38;14.80;;;;;;;;;;1685881;85;21060;-86
2022/10/29 00:59:51;;;;;;;34.73;14.80;;;;;;;;;;1685558;84;21011;-84
2022/10/29 01:02:17;;;;;;;34.80;15.10;;;;;;;;;;1686161;85;20946;-83
2022/10/29 01:04:44;;;;;;;34.80;14.85;;;;;;;;;;1686026;85;20887;-82
2022/10/29 01:07:10;;;;;;;36.50;14.87;;;;;;;;;;1662592;85;21041;-83
2022/10/29 01:09:36;;;;;;;32.60;13.55;;;;;;;;;;1662626;85;21289;-84
2022/10/29 01:12:08;;;;;;;29.92;13.93;;;;;;;;;;1685962;85;20891;-81
2022/10/29 01:14:47;;;;;;;33.83;13.98;;;;;;;;;;1682672;84;21021;-84
2022/10/29 01:17:36;;;;;;;30.48;13.40;;;;;;;;;;1685900;85;21022;-82
2022/10/29 01:20:20;;;;;;;30.50;12.90;;;;;;;;;;1685728;84;21034;-82
2022/10/29 01:22:49;;;;;;;30.57;12.95;;;;;;;;;;1685805;83;21253;-84
2022/10/29 01:25:28;;;;;;;31.75;13.30;;;;;;;;;;1685786;85;21103;-83
2022/10/29 01:27:57;;;;;;;30.77;13.08;;;;;;;;;;1686069;85;21478;-84
2022/10/29 01:31:00;;;;;;;32.75;12.58;;;;;;;;;;1612424;88;21637;-84
2022/10/29 01:33:35;;;;;;;26.00;11.75;;;;;;;;;;1615725;88;21013;-84
2022/10/29 01:36:24;;;;;;;26.85;12.90;;;;;;;;;;1613044;87;22590;-84
2022/10/29 01:39:14;;;;;;;27.77;13.00;;;;;;;;;;1615107;88;21050;-83
2022/10/29 01:41:58;;;;;;;29.30;12.78;;;;;;;;;;1615436;88;21053;-84
2022/10/29 01:44:31;;;;;;;27.95;11.22;;;;;;;;;;1527641;93;21618;-84
2022/10/29 01:47:02;;;;;;;29.80;12.13;;;;;;;;;;1502547;95;21590;-84
2022/10/29 01:49:39;;;;;;;29.77;11.95;;;;;;;;;;1540944;92;21391;-84
2022/10/29 01:52:07;;;;;;;32.23;11.63;;;;;;;;;;1548607;92;21106;-84
2022/10/29 01:54:32;;;;;;;30.62;12.07;;;;;;;;;;1549927;92;21093;-84
2022/10/29 01:56:59;;;;;;;32.98;13.10;;;;;;;;;;1549878;92;20939;-85
2022/10/29 01:59:28;;;;;;;25.77;11.55;;;;;;;;;;1550043;92;21582;-84
2022/10/29 02:02:09;;;;;;;25.60;11.00;;;;;;;;;;1550124;92;21307;-84
2022/10/29 02:04:55;;;;;;;24.60;11.57;;;;;;;;;;1547006;92;21177;-84
2022/10/29 02:07:36;;;;;;;26.62;11.43;;;;;;;;;;1546678;92;20983;-83
2022/10/29 02:10:11;;;;;;;25.82;11.83;;;;;;;;;;1502503;94;21095;-84
2022/10/29 02:12:44;;;;;;;24.57;11.12;;;;;;;;;;1502532;94;21516;-83
2022/10/29 02:15:12;;;;;;;29.02;11.80;;;;;;;;;;1500200;94;21365;-84
2022/10/29 02:17:38;;;;;;;27.22;10.45;;;;;;;;;;1502462;95;21120;-84
2022/10/29 02:20:06;;;;;;;27.40;11.83;;;;;;;;;;1518936;92;21709;-84
2022/10/29 02:22:32;;;;;;;27.32;11.30;;;;;;;;;;1550038;90;21062;-84
2022/10/29 02:24:58;;;;;;;27.25;11.33;;;;;;;;;;1543114;91;21026;-84
2022/10/29 02:27:23;;;;;;;32.13;12.47;;;;;;;;;;1558854;90;21019;-83
2022/10/29 02:29:49;;;;;;;36.60;13.08;;;;;;;;;;1570349;90;21675;-84
2022/10/29 02:32:15;;;;;;;30.85;12.15;;;;;;;;;;1570883;90;20864;-85
2022/10/29 02:34:40;;;;;;;26.87;12.25;;;;;;;;;;1570739;90;22065;-85
2022/10/29 02:37:06;;;;;;;29.25;12.13;;;;;;;;;;1570383;90;20942;-84
2022/10/29 02:39:32;;;;;;;33.70;12.37;;;;;;;;;;1570882;90;21113;-84
2022/10/29 02:41:57;;;;;;;28.40;13.03;;;;;;;;;;1570506;90;20997;-83
2022/10/29 02:44:23;;;;;;;27.67;12.40;;;;;;;;;;1570746;90;21210;-84
2022/10/29 02:46:49;;;;;;;33.05;11.88;;;;;;;;;;1632961;84;20904;-84
2022/10/29 02:49:14;;;;;;;30.32;12.18;;;;;;;;;;1699607;84;21010;-84
2022/10/29 02:51:40;;;;;;;33.35;12.15;;;;;;;;;;1699451;84;21155;-83
2022/10/29 02:54:06;;;;;;;28.85;12.37;;;;;;;;;;1699564;84;21391;-84
2022/10/29 02:56:31;;;;;;;29.27;12.05;;;;;;;;;;1699519;84;21041;-84
2022/10/29 02:58:57;;;;;;;33.85;13.90;;;;;;;;;;1699751;84;20895;-84
2022/10/29 03:01:23;;;;;;;42.62;15.10;;;;;;;;;;1699606;84;21005;-84
2022/10/29 03:03:49;;;;;;;30.65;13.62;;;;;;;;;;1699613;84;21122;-83
2022/10/29 03:06:16;;;;;;;33.78;14.40;;;;;;;;;;1699343;82;21747;-83
2022/10/29 03:08:42;;;;;;;38.75;15.18;;;;;;;;;;1699614;84;20990;-84
2022/10/29 03:11:08;;;;;;;38.30;15.18;;;;;;;;;;1699813;84;20931;-85
2022/10/29 03:13:34;;;;;;;36.10;14.55;;;;;;;;;;1699603;84;21070;-84
2022/10/29 03:16:00;;;;;;;46.65;15.88;;;;;;;;;;1700146;84;21821;-83
2022/10/29 03:18:26;;;;;;;41.98;16.12;;;;;;;;;;1699250;84;20935;-83
2022/10/29 03:20:51;;;;;;;52.05;17.48;;;;;;;;;;1699397;84;21695;-84
2022/10/29 03:23:17;;;;;;;42.73;15.23;;;;;;;;;;1699671;82;20792;-84
2022/10/29 03:25:43;;;;;;;45.50;17.73;;;;;;;;;;1730440;82;21629;-84
2022/10/29 03:28:08;;;;;;;35.73;14.95;;;;;;;;;;1730420;82;21082;-84
2022/10/29 03:30:34;;;;;;;42.38;17.25;;;;;;;;;;1730080;82;21614;-85
2022/10/29 03:33:00;;;;;;;37.70;16.35;;;;;;;;;;1730390;82;20908;-83
2022/10/29 03:35:26;;;;;;;41.90;17.35;;;;;;;;;;1730100;82;20872;-85
2022/10/29 03:37:52;;;;;;;37.70;15.93;;;;;;;;;;1730712;82;21138;-84
2022/10/29 03:40:18;;;;;;;42.78;16.77;;;;;;;;;;1734141;82;21236;-84
2022/10/29 03:42:44;;;;;;;43.10;16.87;;;;;;;;;;1730188;82;21505;-85
2022/10/29 03:45:11;;;;;;;34.95;16.55;;;;;;;;;;1730023;82;21039;-84
2022/10/29 03:47:37;;;;;;;40.40;16.52;;;;;;;;;;1730187;82;21497;-84
2022/10/29 03:50:03;;;;;;;42.03;15.95;;;;;;;;;;1730332;82;20972;-84
2022/10/29 03:52:29;;;;;;;36.48;16.25;;;;;;;;;;1730382;82;22112;-84
2022/10/29 03:54:54;;;;;;;44.20;16.77;;;;;;;;;;1730231;82;20794;-85
2022/10/29 03:57:20;;;;;;;38.15;16.57;;;;;;;;;;1731095;82;20987;-85
2022/10/29 03:59:47;;;;;;;36.65;16.15;;;;;;;;;;1730384;82;20924;-85
2022/10/29 04:02:13;;;;;;;35.05;15.45;;;;;;;;;;1730110;82;21470;-84
2022/10/29 04:04:38;;;;;;;44.70;15.48;;;;;;;;;;1729746;82;21097;-84
2022/10/29 04:07:04;;;;;;;34.45;15.90;;;;;;;;;;1708961;82;20967;-84
2022/10/29 04:09:30;;;;;;;38.30;16.05;;;;;;;;;;1730348;82;20865;-84
2022/10/29 04:11:57;;;;;;;38.28;15.25;;;;;;;;;;1730320;82;20888;-85
2022/10/29 04:14:23;;;;;;;39.25;16.10;;;;;;;;;;1619775;88;21146;-84
2022/10/29 04:16:49;;;;;;;38.10;15.75;;;;;;;;;;1619837;88;21147;-84
2022/10/29 04:19:14;;;;;;;38.15;16.02;;;;;;;;;;1619997;88;21011;-85
2022/10/29 04:21:40;;;;;;;44.35;15.80;;;;;;;;;;1620246;88;20837;-85
2022/10/29 04:24:06;;;;;;;48.95;17.37;;;;;;;;;;1620198;88;21355;-84
2022/10/29 04:26:32;;;;;;;38.98;16.02;;;;;;;;;;1620075;88;21161;-85
2022/10/29 04:28:57;;;;;;;43.70;15.58;;;;;;;;;;1620122;87;21170;-84
2022/10/29 04:31:23;;;;;;;35.48;14.38;;;;;;;;;;1620088;88;21062;-83
2022/10/29 04:33:53;;;;;;;38.75;15.70;;;;;;;;;;1619997;88;20885;-84
2022/10/29 04:36:19;;;;;;;38.73;14.87;;;;;;;;;;1620165;88;21087;-83
2022/10/29 04:38:44;;;;;;;39.25;15.68;;;;;;;;;;1620200;88;21729;-84
2022/10/29 04:41:10;;;;;;;40.40;16.77;;;;;;;;;;1620002;88;21091;-83
2022/10/29 04:43:36;;;;;;;42.98;15.70;;;;;;;;;;1619846;88;21745;-84
2022/10/29 04:46:01;;;;;;;40.98;15.83;;;;;;;;;;1620012;88;20841;-84
2022/10/29 04:48:28;;;;;;;39.55;14.00;;;;;;;;;;1620033;87;20857;-85
2022/10/29 04:50:54;;;;;;;37.30;12.40;;;;;;;;;;1620215;88;21543;-83
2022/10/29 04:53:20;;;;;;;35.23;12.93;;;;;;;;;;1620156;87;21096;-84
2022/10/29 04:55:45;;;;;;;29.20;11.65;;;;;;;;;;1619974;88;21006;-84
2022/10/29 04:58:13;;;;;;;31.87;10.95;;;;;;;;;;1619968;88;20987;-83
2022/10/29 05:00:39;;;;;;;26.77;10.13;;;;;;;;;;1619771;88;21032;-84
2022/10/29 05:03:04;;;;;;;23.70;9.13;;;;;;;;;;1620144;87;21869;-82
2022/10/29 05:05:30;;;;;;;19.80;8.28;;;;;;;;;;1619945;87;21067;-84
2022/10/29 05:07:59;;;;;;;19.82;8.23;;;;;;;;;;1619922;88;21464;-84
2022/10/29 05:10:27;;;;;;;15.98;8.10;;;;;;;;;;1560721;87;21068;-84
2022/10/29 05:12:57;;;;;;;21.70;8.13;;;;;;;;;;1635510;87;21083;-84
2022/10/29 05:15:23;;;;;;;17.87;8.00;;;;;;;;;;1617314;87;21071;-84
2022/10/29 05:17:49;;;;;;;17.52;7.60;;;;;;;;;;1639283;87;21819;-84
2022/10/29 05:20:14;;;;;;;20.35;7.97;;;;;;;;;;1639340;87;20924;-84
2022/10/29 05:22:40;;;;;;;18.60;7.58;;;;;;;;;;1639460;87;20932;-84
2022/10/29 05:25:06;;;;;;;19.52;7.12;;;;;;;;;;1639227;86;20893;-84
2022/10/29 05:27:32;;;;;;;15.75;6.62;;;;;;;;;;1639280;87;21130;-84
2022/10/29 05:29:57;;;;;;;19.17;5.90;;;;;;;;;;1639291;87;21902;-87
2022/10/29 05:32:23;;;;;;;12.65;5.83;;;;;;;;;;1639489;87;20995;-82
2022/10/29 05:34:49;;;;;;;12.75;5.25;;;;;;;;;;1617414;87;20975;-83
2022/10/29 05:37:14;;;;;;;12.15;5.55;;;;;;;;;;1617314;87;20870;-85
2022/10/29 05:39:40;;;;;;;8.68;5.12;;;;;;;;;;1639367;87;20984;-84
2022/10/29 05:42:06;;;;;;;17.52;5.37;;;;;;;;;;1639503;87;21159;-84
2022/10/29 05:44:31;;;;;;;9.43;4.67;;;;;;;;;;1639190;87;20933;-83
2022/10/29 05:46:57;;;;;;;9.28;4.87;;;;;;;;;;1635512;87;21641;-89
2022/10/29 05:49:23;;;;;;;10.15;4.87;;;;;;;;;;1639601;87;20917;-83
2022/10/29 05:51:48;;;;;;;12.53;4.95;;;;;;;;;;1643813;85;20958;-81
2022/10/29 05:54:14;;;;;;;10.68;4.87;;;;;;;;;;1649574;85;21083;-82
2022/10/29 05:56:39;;;;;;;10.13;4.83;;;;;;;;;;1651399;85;21659;-82
2022/10/29 05:59:05;;;;;;;9.65;5.00;;;;;;;;;;1650453;85;20984;-82
2022/10/29 06:01:31;;;;;;;8.20;4.85;;;;;;;;;;1651794;85;20972;-84
2022/10/29 06:04:00;;;;;;;9.98;5.28;;;;;;;;;;1653127;84;21026;-81
2022/10/29 06:06:24;;;;;;;9.45;4.25;;;;;;;;;;1665043;83;21121;-83
2022/10/29 06:08:50;;;;;;;7.83;4.22;;;;;;;;;;1730316;82;20875;-81
2022/10/29 06:11:15;;;;;;;10.75;5.17;;;;;;;;;;1722414;81;21413;-83
2022/10/29 06:13:43;;;;;;;12.63;6.17;;;;;;;;;;1728226;82;20968;-85
2022/10/29 06:16:09;;;;;;;15.50;7.37;;;;;;;;;;1658532;85;21053;-82
2022/10/29 06:18:34;;;;;;;14.80;7.85;;;;;;;;;;1659062;85;22587;-77
2022/10/29 06:21:00;;;;;;;15.68;8.38;;;;;;;;;;1658794;85;20836;-79
2022/10/29 06:23:27;;;;;;;22.80;9.63;;;;;;;;;;1655112;85;21632;-80
2022/10/29 06:25:52;;;;;;;23.52;11.43;;;;;;;;;;1668874;85;21614;-78
2022/10/29 06:28:18;;;;;;;28.38;11.45;;;;;;;;;;1650035;85;20876;-80
2022/10/29 06:30:48;;;;;;;23.87;11.73;;;;;;;;;;1673708;85;21210;-82
2022/10/29 06:33:15;;;;;;;19.75;10.78;;;;;;;;;;1672684;85;21071;-80
2022/10/29 06:35:41;;;;;;;21.93;10.28;;;;;;;;;;1672797;85;21067;-77
2022/10/29 06:38:07;;;;;;;16.97;8.55;;;;;;;;;;1649646;85;21484;-78
2022/10/29 06:43:05;;;;;;;13.55;7.78;;;;;;;;;;1646259;86;21144;-82
2022/10/29 06:45:32;;;;;;;15.03;7.80;;;;;;;;;;1639942;85;21092;-82
2022/10/29 06:47:57;;;;;;;15.55;8.53;;;;;;;;;;1647254;86;21429;-80
2022/10/29 06:50:23;;;;;;;16.23;8.43;;;;;;;;;;1640006;86;21615;-79
2022/10/29 06:52:55;;;;;;;17.65;8.38;;;;;;;;;;1619577;87;20926;-79
2022/10/29 06:55:30;;;;;;;18.42;8.50;;;;;;;;;;1645358;85;21106;-80
2022/10/29 06:58:04;;;;;;;16.10;8.63;;;;;;;;;;1645645;85;21562;-79
2022/10/29 07:00:32;;;;;;;22.58;9.38;;;;;;;;;;1585706;88;21140;-82
2022/10/29 07:02:58;;;;;;;19.07;9.40;;;;;;;;;;1523750;92;21555;-80
2022/10/29 07:05:24;;;;;;;22.75;9.98;;;;;;;;;;1523447;92;21016;-82
2022/10/29 07:07:57;;;;;;;22.93;10.75;;;;;;;;;;1523302;92;21307;-80
2022/10/29 07:10:25;;;;;;;19.60;9.78;;;;;;;;;;1523850;92;21010;-81
2022/10/29 07:12:50;;;;;;;23.92;10.53;;;;;;;;;;1533155;90;21225;-82
2022/10/29 07:15:16;;;;;;;23.42;11.15;;;;;;;;;;1547724;92;20994;-85
2022/10/29 07:17:42;;;;;;;22.67;10.88;;;;;;;;;;1547598;90;20939;-83
2022/10/29 07:20:10;;;;;;;23.40;11.53;;;;;;;;;;1547856;91;21269;-81
2022/10/29 07:22:36;;;;;;;26.85;12.90;;;;;;;;;;1496068;92;21130;-81
2022/10/29 07:25:02;;;;;;;26.73;12.50;;;;;;;;;;1492680;94;21040;-80
2022/10/29 07:27:28;;;;;;;26.07;11.73;;;;;;;;;;1483684;96;21733;-78
2022/10/29 07:29:53;;;;;;;21.80;10.63;;;;;;;;;;1483632;95;21049;-82
2022/10/29 07:32:19;;;;;;;24.27;10.50;;;;;;;;;;1483190;95;22015;-79
2022/10/29 07:34:45;;;;;;;22.60;11.25;;;;;;;;;;1483728;95;21044;-79
2022/10/29 07:37:11;;;;;;;25.32;12.15;;;;;;;;;;1487618;94;21117;-81
2022/10/29 07:39:41;;;;;;;24.05;11.48;;;;;;;;;;1514312;92;20947;-81
2022/10/29 07:42:07;;;;;;;26.50;12.53;;;;;;;;;;1516959;92;21144;-81
2022/10/29 07:44:35;;;;;;;31.02;11.53;;;;;;;;;;1518414;93;21911;-77
2022/10/29 07:47:01;;;;;;;26.37;11.95;;;;;;;;;;1518085;92;21645;-79
2022/10/29 07:49:27;;;;;;;24.52;10.70;;;;;;;;;;1517429;92;21121;-76
2022/10/29 07:51:53;;;;;;;30.27;12.33;;;;;;;;;;1518283;92;21731;-79
2022/10/29 07:54:19;;;;;;;26.45;12.95;;;;;;;;;;1518084;92;20947;-78
2022/10/29 07:56:45;;;;;;;22.80;11.18;;;;;;;;;;1518479;94;21186;-78
2022/10/29 07:59:13;;;;;;;28.32;11.63;;;;;;;;;;1544408;87;21022;-80
2022/10/29 08:01:41;;;;;;;30.90;12.82;;;;;;;;;;1642934;86;21019;-84
2022/10/29 08:04:07;;;;;;;25.00;11.73;;;;;;;;;;1641681;86;21634;-83
2022/10/29 08:06:35;;;;;;;28.30;11.70;;;;;;;;;;1649316;86;20912;-82
2022/10/29 08:09:00;;;;;;;26.97;11.57;;;;;;;;;;1650978;86;20991;-85
2022/10/29 08:11:26;;;;;;;26.52;11.33;;;;;;;;;;1642526;85;20914;-80
2022/10/29 08:13:52;;;;;;;24.27;9.88;;;;;;;;;;1610329;89;21049;-84
2022/10/29 08:16:24;;;;;;;24.63;10.30;;;;;;;;;;1618393;87;21033;-84
2022/10/29 08:18:50;;;;;;;24.33;9.60;;;;;;;;;;1532877;90;21083;-83
2022/10/29 08:21:16;;;;;;;21.25;9.58;;;;;;;;;;1532400;92;21116;-83
2022/10/29 08:23:53;;;;;;;;;;;;;;;;;;;;;
2022/10/29 08:26:12;;;;;;;22.45;9.60;;;;;;;;;;1604818;87;21078;-83
2022/10/29 08:28:42;;;;;;;21.00;8.83;;;;;;;;;;1613208;88;21053;-81
2022/10/29 08:31:11;;;;;;;17.65;8.85;;;;;;;;;;1598099;89;21097;-83
2022/10/29 08:33:55;;;;;;;21.27;9.05;;;;;;;;;;1600445;89;21741;-80
2022/10/29 08:36:07;;;;;;;21.50;9.08;;;;;;;;;;1597074;88;21113;-81
2022/10/29 08:38:33;;;;;;;20.80;9.15;;;;;;;;;;1600236;89;21120;-81
2022/10/29 08:41:33;;;;;;;22.48;8.28;;;;;;;;;;1600144;89;21050;-86
2022/10/29 08:44:21;;;;;;;19.02;9.10;;;;;;;;;;1599924;89;21053;-78
2022/10/29 08:46:49;;;;;;;24.27;9.40;;;;;;;;;;1600041;89;21271;-87
2022/10/29 08:49:18;;;;;;;24.98;9.95;;;;;;;;;;1600520;89;21100;-83
2022/10/29 08:51:50;;;;;;;23.95;10.75;;;;;;;;;;1537386;92;21616;-80
2022/10/29 08:54:16;;;;;;;31.73;11.22;;;;;;;;;;1532399;92;21179;-87
2022/10/29 08:56:48;;;;;;;29.95;13.22;;;;;;;;;;1543701;92;21071;-83
2022/10/29 08:59:20;;;;;;;31.97;13.90;;;;;;;;;;1531033;92;21218;-88
2022/10/29 09:01:45;;;;;;;35.35;14.90;;;;;;;;;;1451662;97;21161;-85
2022/10/29 09:04:35;;;;;;;35.83;14.73;;;;;;;;;;1430116;97;21797;-84
2022/10/29 09:07:13;;;;;;;34.85;14.45;;;;;;;;;;1419089;99;21685;-83
2022/10/29 09:09:42;;;;;;;34.60;13.98;;;;;;;;;;1419669;99;21141;-85
2022/10/29 09:12:17;;;;;;;27.15;13.15;;;;;;;;;;1419292;99;21274;-84
2022/10/29 09:15:05;;;;;;;28.95;13.15;;;;;;;;;;1424890;96;21063;-85
2022/10/29 09:17:34;;;;;;;28.38;13.70;;;;;;;;;;1459011;95;21031;-84
2022/10/29 09:20:07;;;;;;;26.50;12.58;;;;;;;;;;1451792;96;21207;-85
2022/10/29 09:22:46;;;;;;;29.87;14.30;;;;;;;;;;1453612;96;21067;-85
2022/10/29 09:25:15;;;;;;;33.83;14.25;;;;;;;;;;1456698;96;21379;-84
2022/10/29 09:27:54;;;;;;;33.90;13.50;;;;;;;;;;1452731;96;21158;-86
2022/10/29 09:30:20;;;;;;;28.70;13.25;;;;;;;;;;1455129;96;21892;-83
2022/10/29 09:33:06;;;;;;;26.97;13.00;;;;;;;;;;1451458;96;21049;-85
2022/10/29 09:35:38;;;;;;;31.42;12.95;;;;;;;;;;1451291;96;21111;-84
2022/10/29 09:38:19;;;;;;;29.77;12.58;;;;;;;;;;1431716;99;22648;-85
2022/10/29 09:40:45;;;;;;;25.50;12.58;;;;;;;;;;1378406;102;21174;-84
2022/10/29 09:43:27;;;;;;;25.77;12.23;;;;;;;;;;1359837;102;21138;-83
2022/10/29 09:46:27;;;;;;;25.65;11.38;;;;;;;;;;1339044;107;21228;-82
2022/10/29 09:49:02;;;;;;;29.98;13.30;;;;;;;;;;1341741;105;21156;-85
2022/10/29 09:51:57;;;;;;;28.83;13.25;;;;;;;;;;1344266;106;21910;-86
2022/10/29 09:54:26;;;;;;;28.25;12.88;;;;;;;;;;1362092;103;21560;-81
2022/10/29 09:56:52;;;;;;;30.90;13.18;;;;;;;;;;1426462;98;21207;-83
2022/10/29 09:59:30;;;;;;;29.77;12.18;;;;;;;;;;1490269;94;21018;-87
2022/10/29 10:01:57;;;;;;;28.07;13.62;;;;;;;;;;1505332;93;21653;-86
2022/10/29 10:04:27;;;;;;;29.15;12.60;;;;;;;;;;1509080;94;21163;-85
2022/10/29 10:07:05;;;;;;;25.45;12.55;;;;;;;;;;1448601;96;21230;-84
2022/10/29 10:10:00;;;;;;;26.97;11.50;;;;;;;;;;1440262;98;21292;-85
2022/10/29 10:12:41;;;;;;;29.23;12.73;;;;;;;;;;1445728;97;21132;-84
2022/10/29 10:17:59;;;;;;;25.88;12.33;;;;;;;;;;1465088;97;21152;-87
2022/10/29 10:21:14;;;;;;;24.98;11.80;;;;;;;;;;1476406;95;21083;-86
2022/10/29 10:25:50;;;;;;;23.87;11.57;;;;;;;;;;1328789;104;21178;-84
2022/10/29 10:28:29;;;;;;;29.23;11.75;;;;;;;;;;1336109;104;21255;-86
2022/10/29 10:31:07;;;;;;;23.05;11.55;;;;;;;;;;1330123;106;21231;-86
2022/10/29 10:33:35;;;;;;;27.40;12.25;;;;;;;;;;1330097;106;21600;-85
2022/10/29 10:36:06;;;;;;;24.18;12.23;;;;;;;;;;1348780;104;21504;-83
2022/10/29 10:38:46;;;;;;;34.92;12.88;;;;;;;;;;1348023;104;21347;-86
2022/10/29 10:41:14;;;;;;;25.75;12.75;;;;;;;;;;1327104;106;21271;-86
2022/10/29 10:43:44;;;;;;;30.05;13.80;;;;;;;;;;1338929;104;21107;-85
2022/10/29 10:46:19;;;;;;;26.27;11.65;;;;;;;;;;1336638;104;21182;-79
2022/10/29 10:48:59;;;;;;;26.23;13.15;;;;;;;;;;1363023;102;21976;-83
2022/10/29 10:51:30;;;;;;;30.23;14.13;;;;;;;;;;1343254;104;21240;-85
2022/10/29 10:53:57;;;;;;;26.48;12.33;;;;;;;;;;1362332;101;21673;-80
2022/10/29 10:56:23;;;;;;;35.52;13.48;;;;;;;;;;1379444;102;21218;-84
2022/10/29 10:59:02;;;;;;;26.93;13.05;;;;;;;;;;1369955;103;20973;-78
2022/10/29 11:01:31;;;;;;;28.52;13.75;;;;;;;;;;1387421;101;21151;-82
2022/10/29 11:04:03;;;;;;;30.17;12.78;;;;;;;;;;1387955;102;21143;-83
2022/10/29 11:06:32;;;;;;;31.90;13.80;;;;;;;;;;1390270;101;21131;-83
2022/10/29 11:09:19;;;;;;;34.55;13.83;;;;;;;;;;1386616;101;21462;-83
2022/10/29 11:12:00;;;;;;;34.50;12.88;;;;;;;;;;1382232;102;21708;-82
2022/10/29 11:14:29;;;;;;;27.30;11.85;;;;;;;;;;1383582;101;21231;-82
2022/10/29 11:16:58;;;;;;;23.80;11.40;;;;;;;;;;1399060;100;21763;-83
2022/10/29 11:19:30;;;;;;;28.70;11.93;;;;;;;;;;1409638;100;21670;-81
2022/10/29 11:22:14;;;;;;;23.73;11.17;;;;;;;;;;1405135;99;21191;-82
2022/10/29 11:25:06;;;;;;;27.82;11.33;;;;;;;;;;1418633;99;21155;-83
2022/10/29 11:27:39;;;;;;;24.20;10.50;;;;;;;;;;1505574;88;21661;-83
2022/10/29 11:30:14;;;;;;;21.93;10.40;;;;;;;;;;1600609;89;21674;-83
2022/10/29 11:32:58;;;;;;;25.08;11.57;;;;;;;;;;1600724;89;21641;-83
2022/10/29 11:35:42;;;;;;;25.43;12.15;;;;;;;;;;1601258;88;21183;-84
2022/10/29 11:38:31;;;;;;;23.10;10.72;;;;;;;;;;1556722;90;21123;-84
2022/10/29 11:41:07;;;;;;;26.62;11.00;;;;;;;;;;1558458;91;21076;-83
2022/10/29 11:43:33;;;;;;;22.10;10.85;;;;;;;;;;1557052;90;21164;-83
2022/10/29 11:46:18;;;;;;;21.30;10.98;;;;;;;;;;1557171;92;21688;-81
2022/10/29 11:49:14;;;;;;;26.07;12.68;;;;;;;;;;1556373;90;21162;-83
2022/10/29 11:52:01;;;;;;;25.23;10.78;;;;;;;;;;1632174;84;21487;-79
2022/10/29 11:54:37;;;;;;;30.23;11.93;;;;;;;;;;1620121;88;21783;-81
2022/10/29 11:57:06;;;;;;;20.90;10.60;;;;;;;;;;1617139;88;21114;-83
2022/10/29 11:59:39;;;;;;;24.85;11.20;;;;;;;;;;1591955;88;21140;-80
2022/10/29 12:02:31;;;;;;;24.73;11.63;;;;;;;;;;1588186;89;22016;-82
2022/10/29 12:05:03;;;;;;;25.57;11.00;;;;;;;;;;1589265;89;21876;-82
2022/10/29 12:07:38;;;;;;;26.33;11.18;;;;;;;;;;1589167;88;21601;-80
2022/10/29 12:10:13;;;;;;;28.15;11.57;;;;;;;;;;1585097;89;21148;-81
2022/10/29 12:12:51;;;;;;;25.27;11.35;;;;;;;;;;1586091;89;21475;-79
2022/10/29 12:15:23;;;;;;;25.77;11.50;;;;;;;;;;1589431;89;21116;-82
2022/10/29 12:18:04;;;;;;;23.02;11.18;;;;;;;;;;1589303;89;21089;-83
2022/10/29 12:20:55;;;;;;;21.95;10.70;;;;;;;;;;1588373;88;21055;-82
2022/10/29 12:23:42;;;;;;;24.12;11.03;;;;;;;;;;1529737;91;21070;-81
2022/10/29 12:26:17;;;;;;;22.07;10.85;;;;;;;;;;1518506;91;21113;-84
2022/10/29 12:28:50;;;;;;;26.07;10.82;;;;;;;;;;1523633;91;21233;-83
2022/10/29 12:31:23;;;;;;;24.83;11.93;;;;;;;;;;1520171;89;21119;-84
2022/10/29 12:34:04;;;;;;;28.50;11.33;;;;;;;;;;1590611;89;21070;-83
2022/10/29 12:36:55;;;;;;;27.20;11.28;;;;;;;;;;1595910;89;21029;-83
2022/10/29 12:39:27;;;;;;;25.32;11.60;;;;;;;;;;1592337;89;21106;-83
2022/10/29 12:41:56;;;;;;;26.68;12.03;;;;;;;;;;1555777;90;21978;-83
2022/10/29 12:44:32;;;;;;;30.05;12.15;;;;;;;;;;1558523;88;21089;-83
2022/10/29 12:47:04;;;;;;;27.62;11.83;;;;;;;;;;1558675;90;21251;-84
2022/10/29 12:49:54;;;;;;;29.75;12.45;;;;;;;;;;1552114;90;21619;-82
2022/10/29 12:52:40;;;;;;;29.35;12.68;;;;;;;;;;1529241;93;21145;-83
2022/10/29 12:55:09;;;;;;;28.47;11.93;;;;;;;;;;1541597;92;21110;-84
2022/10/29 12:57:35;;;;;;;26.42;11.63;;;;;;;;;;1550633;92;21090;-82
2022/10/29 13:00:26;;;;;;;29.15;12.28;;;;;;;;;;1550543;92;21039;-84
2022/10/29 13:02:53;;;;;;;32.80;12.58;;;;;;;;;;1497599;94;21562;-84
2022/10/29 13:05:35;;;;;;;29.40;12.73;;;;;;;;;;1497894;94;21119;-83
2022/10/29 13:08:07;;;;;;;27.27;12.50;;;;;;;;;;1497046;92;22028;-82
2022/10/29 13:10:36;;;;;;;23.67;12.40;;;;;;;;;;1497440;94;21144;-83
2022/10/29 13:13:14;;;;;;;29.92;12.95;;;;;;;;;;1497708;92;21087;-82
2022/10/29 13:15:59;;;;;;;28.55;13.18;;;;;;;;;;1527283;89;21492;-82
2022/10/29 13:18:47;;;;;;;27.07;12.78;;;;;;;;;;1594654;86;21146;-82
2022/10/29 13:21:33;;;;;;;27.32;12.37;;;;;;;;;;1598008;86;21540;-82
2022/10/29 13:24:09;;;;;;;31.52;12.95;;;;;;;;;;1584905;88;21123;-81
2022/10/29 13:26:57;;;;;;;26.87;12.98;;;;;;;;;;1585523;86;21042;-81
2022/10/29 13:29:40;;;;;;;31.00;12.10;;;;;;;;;;1606767;87;21043;-80
2022/10/29 13:32:31;;;;;;;26.00;12.30;;;;;;;;;;1578317;87;21823;-83
2022/10/29 13:34:58;;;;;;;30.57;13.45;;;;;;;;;;1607024;87;21801;-82
2022/10/29 13:37:48;;;;;;;30.75;13.40;;;;;;;;;;1616123;87;21091;-83
2022/10/29 13:40:32;;;;;;;32.25;13.90;;;;;;;;;;1657136;83;21018;-84
2022/10/29 13:43:03;;;;;;;27.05;13.62;;;;;;;;;;1684356;83;21597;-83
2022/10/29 13:45:30;;;;;;;28.20;12.30;;;;;;;;;;1690173;83;21011;-84
2022/10/29 13:48:03;;;;;;;21.52;12.18;;;;;;;;;;1671841;83;21269;-84
2022/10/29 13:50:29;;;;;;;27.55;13.68;;;;;;;;;;1656657;83;21520;-85
2022/10/29 13:52:57;;;;;;;29.42;12.85;;;;;;;;;;1653696;84;21094;-84
2022/10/29 13:55:25;;;;;;;28.30;13.03;;;;;;;;;;1652448;86;21098;-85
2022/10/29 13:58:15;;;;;;;26.40;13.08;;;;;;;;;;1652170;86;21571;-83
2022/10/29 14:00:42;;;;;;;26.33;13.32;;;;;;;;;;1602381;89;21913;-84
2022/10/29 14:03:20;;;;;;;26.87;13.22;;;;;;;;;;1598304;89;21633;-85
2022/10/29 14:05:49;;;;;;;30.80;13.00;;;;;;;;;;1598973;88;21058;-85
2022/10/29 14:08:35;;;;;;;27.58;13.08;;;;;;;;;;1583396;88;21139;-83
2022/10/29 14:11:04;;;;;;;31.45;13.35;;;;;;;;;;1596293;88;21605;-85
2022/10/29 14:13:33;;;;;;;26.85;13.43;;;;;;;;;;1584217;90;21101;-85
2022/10/29 14:16:08;;;;;;;31.02;14.23;;;;;;;;;;1591869;90;21857;-85
2022/10/29 14:18:48;;;;;;;30.95;13.78;;;;;;;;;;1592424;88;21113;-85
2022/10/29 14:21:32;;;;;;;29.00;13.55;;;;;;;;;;1592931;88;21089;-84
2022/10/29 14:24:00;;;;;;;29.25;14.63;;;;;;;;;;1620980;85;21069;-84
2022/10/29 14:26:27;;;;;;;34.40;14.13;;;;;;;;;;1608391;85;21630;-85
2022/10/29 14:28:55;;;;;;;32.98;14.47;;;;;;;;;;1645584;85;21093;-85
2022/10/29 14:31:23;;;;;;;32.98;15.00;;;;;;;;;;1583899;90;21033;-83
2022/10/29 14:33:57;;;;;;;31.77;14.85;;;;;;;;;;1598544;84;21073;-82
2022/10/29 14:36:32;;;;;;;28.52;14.05;;;;;;;;;;1608297;87;20987;-82
2022/10/29 14:39:04;;;;;;;33.50;15.35;;;;;;;;;;1621954;84;21283;-84
2022/10/29 14:41:31;;;;;;;32.10;14.53;;;;;;;;;;1630909;85;21030;-78
2022/10/29 14:44:13;;;;;;;40.35;15.23;;;;;;;;;;1635880;84;21088;-85
2022/10/29 14:46:39;;;;;;;30.50;15.40;;;;;;;;;;1639758;85;21073;-85
2022/10/29 14:49:18;;;;;;;40.43;17.15;;;;;;;;;;1607098;87;21096;-85